createdAt,value
2022-10-03T00:02:12.455Z,10.07
2022-10-03T00:04:59.048Z,10.37
2022-10-03T00:07:48.828Z,10.60
2022-10-03T00:10:29.314Z,13.80
2022-10-03T00:13:20.579Z,9.57
2022-10-03T00:15:57.030Z,9.63
2022-10-03T00:18:41.452Z,8.97
2022-10-03T00:21:28.541Z,8.63
2022-10-03T00:24:11.518Z,8.20
2022-10-03T00:26:48.631Z,8.33
2022-10-03T00:29:38.695Z,9.17
2022-10-03T00:32:21.222Z,8.60
2022-10-03T00:35:12.376Z,8.00
2022-10-03T00:37:50.561Z,9.07
2022-10-03T00:40:55.949Z,10.33
2022-10-03T00:43:57.219Z,8.13
2022-10-03T00:46:49.957Z,8.00
2022-10-03T00:49:49.748Z,7.87
2022-10-03T00:52:42.949Z,8.43
2022-10-03T00:55:26.275Z,8.47
2022-10-03T00:58:16.953Z,9.87
2022-10-03T01:00:53.759Z,8.50
2022-10-03T01:03:49.256Z,8.07
2022-10-03T01:06:36.968Z,8.10
2022-10-03T01:09:23.929Z,8.00
2022-10-03T01:12:14.053Z,7.77
2022-10-03T01:15:05.291Z,7.67
2022-10-03T01:17:48.635Z,8.43
2022-10-03T01:20:30.394Z,8.50
2022-10-03T01:23:28.644Z,9.57
2022-10-03T01:26:22.478Z,9.23
2022-10-03T01:29:22.877Z,8.97
2022-10-03T01:31:59.089Z,8.60
2022-10-03T01:34:33.947Z,9.93
2022-10-03T01:37:12.311Z,8.33
2022-10-03T01:39:51.957Z,8.80
2022-10-03T01:42:38.284Z,8.63
2022-10-03T01:45:31.128Z,9.93
2022-10-03T01:48:05.120Z,8.73
2022-10-03T01:50:41.593Z,10.93
2022-10-03T01:53:17.751Z,8.63
2022-10-03T01:55:58.885Z,8.97
2022-10-03T01:58:38.667Z,10.03
2022-10-03T02:01:15.002Z,9.57
2022-10-03T02:03:53.069Z,9.37
2022-10-03T02:06:32.611Z,9.23
2022-10-03T02:09:12.823Z,9.27
2022-10-03T02:11:57.566Z,10.30
2022-10-03T02:14:37.480Z,10.27
2022-10-03T02:17:19.133Z,10.10
2022-10-03T02:19:58.387Z,9.83
2022-10-03T02:22:34.220Z,9.87
2022-10-03T02:25:22.354Z,9.90
2022-10-03T02:28:16.407Z,9.93
2022-10-03T02:31:06.853Z,9.47
2022-10-03T02:33:57.201Z,10.10
2022-10-03T02:36:46.306Z,11.13
2022-10-03T02:39:46.134Z,12.37
2022-10-03T02:42:41.432Z,14.00
2022-10-03T02:45:32.371Z,10.83
2022-10-03T02:48:35.220Z,10.10
2022-10-03T02:51:33.758Z,10.57
2022-10-03T02:54:36.684Z,9.43
2022-10-03T02:57:37.695Z,10.30
2022-10-03T03:00:14.783Z,13.87
2022-10-03T03:03:11.904Z,9.43
2022-10-03T03:06:14.107Z,10.67
2022-10-03T03:09:10.202Z,10.07
2022-10-03T03:12:07.612Z,9.37
2022-10-03T03:15:18.488Z,10.00
2022-10-03T03:17:55.379Z,9.40
2022-10-03T03:20:57.608Z,9.00
2022-10-03T03:23:57.505Z,10.67
2022-10-03T03:26:51.249Z,9.40
2022-10-03T03:29:32.065Z,9.10
2022-10-03T03:32:13.871Z,10.47
2022-10-03T03:34:53.190Z,13.03
2022-10-03T03:37:29.177Z,9.47
2022-10-03T03:40:09.970Z,8.63
2022-10-03T03:43:00.446Z,9.67
2022-10-03T03:45:42.109Z,8.90
2022-10-03T03:48:31.235Z,9.13
2022-10-03T03:51:18.694Z,11.13
2022-10-03T03:54:05.878Z,11.77
2022-10-03T03:57:02.035Z,9.50
2022-10-03T03:59:50.674Z,10.53
2022-10-03T04:02:33.577Z,10.40
2022-10-03T04:05:16.025Z,10.10
2022-10-03T04:07:59.046Z,9.50
2022-10-03T04:10:45.513Z,9.97
2022-10-03T04:13:37.118Z,9.43
2022-10-03T04:16:46.878Z,9.30
2022-10-03T04:19:27.466Z,8.67
2022-10-03T04:22:24.271Z,9.73
2022-10-03T04:25:26.467Z,10.20
2022-10-03T04:28:21.630Z,10.03
2022-10-03T04:31:06.978Z,9.47
2022-10-03T04:33:55.221Z,11.40
2022-10-03T04:37:01.867Z,10.73
2022-10-03T04:39:40.757Z,11.73
2022-10-03T04:42:27.322Z,8.90
2022-10-03T04:45:15.403Z,8.80
2022-10-03T04:47:50.852Z,9.30
2022-10-03T04:50:40.927Z,8.90
2022-10-03T04:53:31.652Z,8.87
2022-10-03T04:56:14.743Z,9.17
2022-10-03T04:58:53.789Z,9.20
2022-10-03T05:01:29.998Z,10.80
2022-10-03T05:04:10.845Z,8.90
2022-10-03T05:06:51.217Z,9.20
2022-10-03T05:09:33.683Z,9.50
2022-10-03T05:12:13.879Z,10.10
2022-10-03T05:15:10.942Z,9.23
2022-10-03T05:17:51.835Z,11.57
2022-10-03T05:20:38.653Z,9.63
2022-10-03T05:23:22.236Z,13.37
2022-10-03T05:26:23.262Z,9.07
2022-10-03T05:29:00.074Z,10.23
2022-10-03T05:31:47.485Z,9.33
2022-10-03T05:34:29.035Z,8.80
2022-10-03T05:37:25.779Z,9.37
2022-10-03T05:40:03.388Z,11.10
2022-10-03T05:42:42.354Z,16.70
2022-10-03T05:45:30.576Z,10.53
2022-10-03T05:48:17.297Z,12.77
2022-10-03T05:51:13.583Z,10.13
2022-10-03T05:54:22.917Z,12.53
2022-10-03T05:57:18.305Z,11.97
2022-10-03T06:00:08.396Z,13.87
2022-10-03T06:03:09.742Z,10.47
2022-10-03T06:06:01.897Z,12.73
2022-10-03T06:08:53.042Z,11.63
2022-10-03T06:11:59.176Z,11.43
2022-10-03T06:14:42.314Z,13.63
2022-10-03T06:17:31.435Z,11.57
2022-10-03T06:20:14.886Z,13.43
2022-10-03T06:23:14.855Z,11.77
2022-10-03T06:26:07.356Z,12.50
2022-10-03T06:29:05.756Z,15.67
2022-10-03T06:32:04.819Z,13.23
2022-10-03T06:34:55.444Z,12.57
2022-10-03T06:38:02.758Z,12.87
2022-10-03T06:41:04.221Z,14.43
2022-10-03T06:43:57.337Z,12.00
2022-10-03T06:47:02.802Z,11.50
2022-10-03T06:49:43.255Z,14.17
2022-10-03T06:52:33.799Z,15.30
2022-10-03T06:55:34.450Z,12.33
2022-10-03T06:58:35.558Z,13.20
2022-10-03T07:01:28.996Z,14.23
2022-10-03T07:04:19.683Z,12.27
2022-10-03T07:07:17.465Z,15.77
2022-10-03T07:10:29.173Z,14.47
2022-10-03T07:13:39.509Z,12.80
2022-10-03T07:16:36.806Z,11.67
2022-10-03T07:19:27.206Z,12.83
2022-10-03T07:22:39.969Z,13.83
2022-10-03T07:25:59.891Z,15.77
2022-10-03T07:28:48.804Z,12.63
2022-10-03T07:31:30.875Z,16.83
2022-10-03T07:34:34.131Z,15.23
2022-10-03T07:37:47.053Z,17.00
2022-10-03T07:40:47.730Z,15.73
2022-10-03T07:44:04.117Z,15.80
2022-10-03T07:47:12.335Z,16.20
2022-10-03T07:50:03.829Z,15.50
2022-10-03T07:53:02.771Z,15.67
2022-10-03T07:55:55.117Z,14.00
2022-10-03T07:58:43.265Z,13.80
2022-10-03T08:01:39.264Z,15.37
2022-10-03T08:04:35.579Z,17.13
2022-10-03T08:07:29.591Z,13.60
2022-10-03T08:10:22.317Z,13.80
2022-10-03T08:13:10.590Z,15.23
2022-10-03T08:15:56.298Z,13.67
2022-10-03T08:18:56.064Z,14.37
2022-10-03T08:21:32.717Z,12.87
2022-10-03T08:24:26.103Z,15.73
2022-10-03T08:27:16.604Z,12.10
2022-10-03T08:30:08.524Z,14.00
2022-10-03T08:33:07.399Z,14.33
2022-10-03T08:36:12.640Z,11.07
2022-10-03T08:39:01.544Z,15.73
2022-10-03T08:42:04.065Z,11.23
2022-10-03T08:45:16.283Z,13.70
2022-10-03T08:48:25.153Z,13.83
2022-10-03T08:51:18.597Z,14.93
2022-10-03T08:54:18.405Z,14.43
2022-10-03T08:57:09.732Z,12.53
2022-10-03T09:00:09.318Z,16.10
2022-10-03T09:03:33.951Z,13.83
2022-10-03T09:07:12.251Z,13.33
2022-10-03T09:10:10.383Z,15.20
2022-10-03T09:13:14.515Z,13.20
2022-10-03T09:16:18.376Z,12.23
2022-10-03T09:19:08.892Z,10.97
2022-10-03T09:22:10.130Z,11.47
2022-10-03T09:25:06.859Z,9.53
2022-10-03T09:28:01.495Z,8.07
2022-10-03T09:30:47.625Z,8.93
2022-10-03T09:33:55.400Z,9.13
2022-10-03T09:37:04.086Z,13.63
2022-10-03T09:40:02.314Z,10.73
2022-10-03T09:43:05.644Z,10.47
2022-10-03T09:46:08.479Z,9.10
2022-10-03T09:49:10.835Z,6.60
2022-10-03T09:51:51.762Z,11.35
2022-10-03T09:54:51.970Z,10.80
2022-10-03T09:57:57.317Z,13.02
2022-10-03T10:00:30.373Z,8.40
2022-10-03T10:03:42.730Z,11.43
2022-10-03T10:06:30.614Z,8.70
2022-10-03T10:09:30.148Z,10.85
2022-10-03T10:12:25.572Z,8.33
2022-10-03T10:15:24.056Z,14.00
2022-10-03T10:18:18.836Z,10.20
2022-10-03T10:21:24.515Z,8.13
2022-10-03T10:24:07.369Z,10.53
2022-10-03T10:27:11.073Z,9.30
2022-10-03T10:30:03.840Z,10.68
2022-10-03T10:33:17.377Z,8.65
2022-10-03T10:36:28.637Z,11.23
2022-10-03T10:39:24.536Z,8.88
2022-10-03T10:42:37.803Z,8.20
2022-10-03T10:45:39.120Z,7.78
2022-10-03T10:48:40.772Z,11.10
2022-10-03T10:51:55.270Z,7.72
2022-10-03T10:55:03.830Z,9.05
2022-10-03T10:58:09.581Z,8.30
2022-10-03T11:01:12.547Z,6.53
2022-10-03T11:04:21.990Z,10.82
2022-10-03T11:07:19.674Z,9.43
2022-10-03T11:10:32.188Z,11.23
2022-10-03T11:13:37.362Z,11.00
2022-10-03T11:16:38.495Z,8.25
2022-10-03T11:19:53.099Z,5.55
2022-10-03T11:23:08.710Z,9.30
2022-10-03T11:26:11.769Z,10.60
2022-10-03T11:29:14.023Z,8.35
2022-10-03T11:32:31.502Z,10.15
2022-10-03T11:35:32.311Z,30.45
2022-10-03T11:38:14.113Z,22.17
2022-10-03T11:40:58.027Z,9.35
2022-10-03T11:44:01.504Z,6.47
2022-10-03T11:46:49.766Z,13.32
2022-10-03T11:49:37.220Z,8.68
2022-10-03T11:52:17.941Z,7.32
2022-10-03T11:54:54.653Z,6.55
2022-10-03T11:57:33.620Z,6.18
2022-10-03T12:00:08.668Z,5.45
2022-10-03T12:02:57.378Z,6.43
2022-10-03T12:05:40.485Z,8.18
2022-10-03T12:08:49.775Z,3.38
2022-10-03T12:11:29.282Z,4.40
2022-10-03T12:14:17.150Z,7.35
2022-10-03T12:17:01.455Z,4.00
2022-10-03T12:19:36.775Z,5.13
2022-10-03T12:22:16.643Z,4.35
2022-10-03T12:24:48.199Z,4.03
2022-10-03T12:27:30.364Z,4.07
2022-10-03T12:30:06.531Z,6.80
2022-10-03T12:32:49.656Z,5.32
2022-10-03T12:35:36.317Z,5.47
2022-10-03T12:38:22.916Z,8.27
2022-10-03T12:41:03.802Z,8.50
2022-10-03T12:43:52.303Z,6.18
2022-10-03T12:46:33.504Z,7.55
2022-10-03T12:49:08.117Z,4.95
2022-10-03T12:51:50.822Z,6.45
2022-10-03T12:54:40.738Z,4.82
2022-10-03T12:57:36.250Z,6.38
2022-10-03T13:00:17.418Z,3.45
2022-10-03T13:02:58.378Z,6.18
2022-10-03T13:05:44.117Z,7.18
2022-10-03T13:08:30.540Z,7.80
2022-10-03T13:11:11.826Z,3.60
2022-10-03T13:13:53.287Z,3.22
2022-10-03T13:16:31.965Z,7.32
2022-10-03T13:19:06.737Z,4.88
2022-10-03T13:22:03.594Z,3.65
2022-10-03T13:24:40.621Z,6.85
2022-10-03T13:27:30.550Z,5.15
2022-10-03T13:30:09.769Z,7.13
2022-10-03T13:32:46.101Z,5.82
2022-10-03T13:35:37.286Z,3.20
2022-10-03T13:38:26.618Z,5.22
2022-10-03T13:41:05.454Z,3.45
2022-10-03T13:43:38.868Z,6.50
2022-10-03T13:46:16.583Z,5.05
2022-10-03T13:49:01.765Z,4.07
2022-10-03T13:51:44.787Z,4.72
2022-10-03T13:54:24.097Z,4.53
2022-10-03T13:56:59.495Z,4.32
2022-10-03T13:59:54.414Z,5.10
2022-10-03T14:03:08.798Z,5.18
2022-10-03T14:05:53.340Z,5.65
2022-10-03T14:08:38.629Z,4.28
2022-10-03T14:11:28.003Z,3.28
2022-10-03T14:14:35.999Z,4.22
2022-10-03T14:17:14.404Z,5.32
2022-10-03T14:19:58.666Z,3.55
2022-10-03T14:22:45.500Z,4.22
2022-10-03T14:25:28.279Z,2.92
2022-10-03T14:28:05.834Z,2.47
2022-10-03T14:31:05.156Z,2.67
2022-10-03T14:33:43.959Z,4.80
2022-10-03T14:36:27.285Z,5.18
2022-10-03T14:39:09.242Z,3.47
2022-10-03T14:41:48.722Z,6.97
2022-10-03T14:44:23.118Z,5.20
2022-10-03T14:47:00.454Z,3.20
2022-10-03T14:49:53.528Z,3.58
2022-10-03T14:52:30.972Z,6.82
2022-10-03T14:55:16.029Z,5.13
2022-10-03T14:58:09.830Z,3.67
2022-10-03T15:00:45.454Z,4.82
2022-10-03T15:03:45.790Z,6.35
2022-10-03T15:06:38.127Z,2.67
2022-10-03T15:09:13.526Z,5.05
2022-10-03T15:11:53.728Z,3.80
2022-10-03T15:14:25.418Z,3.90
2022-10-03T15:16:57.745Z,4.00
2022-10-03T15:19:33.033Z,5.25
2022-10-03T15:22:10.357Z,4.03
2022-10-03T15:24:42.852Z,5.53
2022-10-03T15:27:22.551Z,3.92
2022-10-03T15:29:57.589Z,4.03
2022-10-03T15:32:31.133Z,5.18
2022-10-03T15:35:03.845Z,5.80
2022-10-03T15:37:37.584Z,5.22
2022-10-03T15:40:12.763Z,2.92
2022-10-03T15:43:05.219Z,5.60
2022-10-03T15:45:37.479Z,7.22
2022-10-03T15:48:13.321Z,3.83
2022-10-03T15:50:47.594Z,6.55
2022-10-03T15:53:36.025Z,3.40
2022-10-03T15:56:16.038Z,4.10
2022-10-03T15:58:53.075Z,4.50
2022-10-03T16:01:25.750Z,4.78
2022-10-03T16:03:59.483Z,5.15
2022-10-03T16:06:37.159Z,2.42
2022-10-03T16:09:17.055Z,2.70
2022-10-03T16:11:57.226Z,5.85
2022-10-03T16:14:34.592Z,3.47
2022-10-03T16:17:13.074Z,7.57
2022-10-03T16:19:45.290Z,4.80
2022-10-03T16:22:25.358Z,4.73
2022-10-03T16:25:08.129Z,6.15
2022-10-03T16:27:42.579Z,2.75
2022-10-03T16:30:25.165Z,4.90
2022-10-03T16:33:04.765Z,6.10
2022-10-03T16:35:39.090Z,2.65
2022-10-03T16:38:27.385Z,3.03
2022-10-03T16:41:01.298Z,7.47
2022-10-03T16:43:34.816Z,7.32
2022-10-03T16:46:15.220Z,4.75
2022-10-03T16:48:59.679Z,5.80
2022-10-03T16:51:39.249Z,6.57
2022-10-03T16:54:14.966Z,4.53
2022-10-03T16:56:49.126Z,6.53
2022-10-03T16:59:21.902Z,5.53
2022-10-03T17:01:58.621Z,5.50
2022-10-03T17:04:32.956Z,5.90
2022-10-03T17:07:05.033Z,5.47
2022-10-03T17:09:43.535Z,6.03
2022-10-03T17:12:20.301Z,5.00
2022-10-03T17:14:51.643Z,6.83
2022-10-03T17:17:33.089Z,5.07
2022-10-03T17:20:08.631Z,6.60
2022-10-03T17:22:43.482Z,7.23
2022-10-03T17:25:39.502Z,10.90
2022-10-03T17:28:16.896Z,6.63
2022-10-03T17:30:51.257Z,8.13
2022-10-03T17:33:28.709Z,5.33
2022-10-03T17:36:08.016Z,7.43
2022-10-03T17:38:50.114Z,7.93
2022-10-03T17:41:24.460Z,4.70
2022-10-03T17:44:06.007Z,5.13
2022-10-03T17:46:46.033Z,5.23
2022-10-03T17:49:31.749Z,7.33
2022-10-03T17:52:02.014Z,6.63
2022-10-03T17:54:36.110Z,9.00
2022-10-03T17:57:11.038Z,5.93
2022-10-03T17:59:50.779Z,5.23
2022-10-03T18:02:25.632Z,4.70
2022-10-03T18:05:06.409Z,6.17
2022-10-03T18:07:38.639Z,6.95
2022-10-03T18:10:19.330Z,5.40
2022-10-03T18:12:53.864Z,8.50
2022-10-03T18:15:48.483Z,6.00
2022-10-03T18:18:56.588Z,6.07
2022-10-03T18:21:39.645Z,7.83
2022-10-03T18:24:36.393Z,9.40
2022-10-03T18:27:26.580Z,10.93
2022-10-03T18:30:05.836Z,6.00
2022-10-03T18:32:40.477Z,7.10
2022-10-03T18:35:16.802Z,11.17
2022-10-03T18:38:08.148Z,8.77
2022-10-03T18:40:46.631Z,7.07
2022-10-03T18:43:29.379Z,9.60
2022-10-03T18:46:07.872Z,7.23
2022-10-03T18:48:44.089Z,7.70
2022-10-03T18:51:19.311Z,8.30
2022-10-03T18:53:58.372Z,8.00
2022-10-03T18:56:29.923Z,6.67
2022-10-03T18:59:18.699Z,8.87
2022-10-03T19:01:55.040Z,7.40
2022-10-03T19:04:39.295Z,8.37
2022-10-03T19:07:19.914Z,9.20
2022-10-03T19:10:14.493Z,6.90
2022-10-03T19:12:49.325Z,8.73
2022-10-03T19:15:24.409Z,6.07
2022-10-03T19:18:09.642Z,7.13
2022-10-03T19:20:44.277Z,9.13
2022-10-03T19:23:18.994Z,5.90
2022-10-03T19:25:58.788Z,6.80
2022-10-03T19:28:33.751Z,7.43
2022-10-03T19:31:08.574Z,5.03
2022-10-03T19:33:46.573Z,4.53
2022-10-03T19:36:20.004Z,9.80
2022-10-03T19:38:51.117Z,7.53
2022-10-03T19:41:31.236Z,8.53
2022-10-03T19:44:06.903Z,6.73
2022-10-03T19:46:55.185Z,7.87
2022-10-03T19:49:31.996Z,5.83
2022-10-03T19:52:19.324Z,4.87
2022-10-03T19:54:57.459Z,5.77
2022-10-03T19:57:40.814Z,8.87
2022-10-03T20:00:24.303Z,5.27
2022-10-03T20:03:01.678Z,12.50
2022-10-03T20:05:39.588Z,7.70
2022-10-03T20:08:24.127Z,11.07
2022-10-03T20:11:07.497Z,7.67
2022-10-03T20:13:46.980Z,8.40
2022-10-03T20:16:18.727Z,7.90
2022-10-03T20:18:52.093Z,10.33
2022-10-03T20:21:25.139Z,6.40
2022-10-03T20:23:56.847Z,9.37
2022-10-03T20:26:36.208Z,8.13
2022-10-03T20:29:23.133Z,7.10
2022-10-03T20:31:54.345Z,11.00
2022-10-03T20:34:27.254Z,7.53
2022-10-03T20:37:11.025Z,10.57
2022-10-03T20:39:44.948Z,7.00
2022-10-03T20:42:19.691Z,8.07
2022-10-03T20:45:04.531Z,6.20
2022-10-03T20:47:56.826Z,11.63
2022-10-03T20:50:29.788Z,9.63
2022-10-03T20:53:02.566Z,8.93
2022-10-03T20:55:36.181Z,8.27
2022-10-03T20:58:30.379Z,6.57
2022-10-03T21:01:08.934Z,9.10
2022-10-03T21:03:43.839Z,6.60
2022-10-03T21:06:24.625Z,9.40
2022-10-03T21:08:57.110Z,10.07
2022-10-03T21:11:30.938Z,8.30
2022-10-03T21:14:03.323Z,6.47
2022-10-03T21:16:38.788Z,9.67
2022-10-03T21:19:18.841Z,7.60
2022-10-03T21:21:54.389Z,7.20
2022-10-03T21:24:31.468Z,6.60
2022-10-03T21:27:05.571Z,7.57
2022-10-03T21:29:37.023Z,6.77
2022-10-03T21:32:29.956Z,9.07
2022-10-03T21:35:10.449Z,7.53
2022-10-03T21:37:47.424Z,6.43
2022-10-03T21:40:33.718Z,8.93
2022-10-03T21:43:14.665Z,7.97
2022-10-03T21:45:54.597Z,8.57
2022-10-03T21:48:35.597Z,9.30
2022-10-03T21:51:15.131Z,11.40
2022-10-03T21:53:53.941Z,5.80
2022-10-03T21:56:45.679Z,7.77
2022-10-03T21:59:38.329Z,7.43
2022-10-03T22:02:18.251Z,22.13
2022-10-03T22:04:57.041Z,6.00
2022-10-03T22:07:38.143Z,6.90
2022-10-03T22:10:21.450Z,5.83
2022-10-03T22:12:54.662Z,8.27
2022-10-03T22:15:32.839Z,6.97
2022-10-03T22:18:06.609Z,5.10
2022-10-03T22:20:40.336Z,5.80
2022-10-03T22:23:32.796Z,7.03
2022-10-03T22:26:14.649Z,5.03
2022-10-03T22:28:56.039Z,6.47
2022-10-03T22:31:34.076Z,7.57
2022-10-03T22:34:22.149Z,16.20
2022-10-03T22:36:54.893Z,5.47
2022-10-03T22:39:25.686Z,9.13
2022-10-03T22:42:00.456Z,6.90
2022-10-03T22:44:33.530Z,16.30
2022-10-03T22:47:10.012Z,5.00
2022-10-03T22:49:44.311Z,5.37
2022-10-03T22:52:21.558Z,6.00
2022-10-03T22:54:53.685Z,6.83
2022-10-03T22:57:25.653Z,5.00
2022-10-03T22:59:59.756Z,4.33
2022-10-03T23:02:33.351Z,7.27
2022-10-03T23:05:06.711Z,6.60
2022-10-03T23:07:58.108Z,10.20
2022-10-03T23:10:50.704Z,11.33
2022-10-03T23:13:27.968Z,5.10
2022-10-03T23:16:08.197Z,11.87
2022-10-03T23:19:08.424Z,4.77
2022-10-03T23:21:48.067Z,4.53
2022-10-03T23:24:28.852Z,4.80
2022-10-03T23:27:28.315Z,4.60
2022-10-03T23:30:33.793Z,4.50
2022-10-03T23:33:03.839Z,8.17
2022-10-03T23:35:41.903Z,3.83
2022-10-03T23:38:41.427Z,4.00
2022-10-03T23:41:17.293Z,4.40
2022-10-03T23:43:52.230Z,4.30
2022-10-03T23:46:25.590Z,4.30
2022-10-03T23:48:57.926Z,5.63
2022-10-03T23:51:32.043Z,4.20
2022-10-03T23:54:04.922Z,11.93
2022-10-03T23:56:41.300Z,8.60
2022-10-03T23:59:25.448Z,9.87
